Terminal Aerodrome Forecast
Issued by NWS

Home | Current Version | Previous Version | Text Only | Print | Product List | Glossary On
Versions: 1 2 3 4 5 6 7 8 9 10 11 12 13 14 15 16 17 18 19 20 21 22 23 24 25 26 27
000
FTUS41 KOKX 020500
TAFTEB
TAF
KTEB 020540Z 0206/0306 VRB03KT 6SM BR BKN015
     FM020900 29005KT P6SM SCT010 BKN025
     FM021200 30010G17KT P6SM SCT025 BKN050
     FM021500 31014G23KT P6SM FEW050
     FM022300 31010KT P6SM SKC
     FM030400 31006KT P6SM SKC=

USA.gov is the U.S. government's official web portal to all federal, state and local government web resources and services.